Terminal Aerodrome Forecast
Issued by NWS

Home | Current Version | Previous Version | Text Only | Print | Product List | Glossary On
Versions: 1 2 3 4 5 6 7 8 9 10 11 12 13 14 15 16 17 18 19 20 21 22 23
000
FTAK31 PAFA 260722 AAA
TAFAFA
TAF AMD
PAFA 260722Z 2607/2712 03004KT P6SM BKN017
     FM261300 VRB03KT 2SM BR BKN005 OVC017
     FM261900 VRB04KT P6SM SCT050 BKN100=

USA.gov is the U.S. government's official web portal to all federal, state and local government web resources and services.